EFTP/TMP METAR and TAF weather

Enter ICAO airport designator
Station Type Date Time Source
EFTP METAR 2021/09/28 04:20 UTC NOAA

EFTP 280420Z AUTO 12006KT 9999 BKN031 05/05 Q1031


Station Type Date Time Source
EFTP Decoded METAR 2021/09/28 04:20 UTC NOAA

Tampere / Pirkkala, Finland (EFTP) 61-25N 023-35E 112M
Sep 28, 2021 - 12:20 AM EDT / 2021.09.28 0420 UTC
Wind: from the ESE (120 degrees) at 7 MPH (6 KT):0
Visibility: greater than 7 mile(s):0
Sky conditions: mostly cloudy
Temperature: 41 F (5 C)
Dew Point: 41 F (5 C)
Relative Humidity: 100%
Pressure (altimeter): 30.45 in. Hg (1031 hPa)
ob: EFTP 280420Z AUTO 12006KT 9999 BKN031 05/05 Q1031
cycle: 4

Station Type Date Time Source
EFTP TAF 2021/09/28 03:42 UTC NOAA

TAF EFTP 280228Z 2803/2903 13004KT CAVOK
TEMPO 2803/2807 2000 BCFG PROB30 2803/2807 0500 FG VV002 PROB30 2807/2810 BKN006

Example: see airport list